Time;durP1;ratioP1;P1;durP2;ratioP2;P2;SDS_P1;SDS_P2;PMS_P1;PMS_P2;Temp;Humidity;BMP_temperature;BMP_pressure;BME280_temperature;BME280_humidity;BME280_pressure;Samples;Min_cycle;Max_cycle;Signal;HPM_P1;HPM_P2
2022/04/17 00:02:01;;;;;;;9.57;6.37;;;5.10;99.90;;;;;;5098080;28;20178;-76
2022/04/17 00:04:27;;;;;;;9.43;6.43;;;5.00;99.90;;;;;;5116345;28;20260;-76
2022/04/17 00:06:52;;;;;;;9.17;7.07;;;5.00;1.00;;;;;;5116403;28;20285;-77
2022/04/17 00:09:18;;;;;;;8.33;6.60;;;5.00;1.00;;;;;;5116267;28;20239;-77
2022/04/17 00:11:44;;;;;;;11.37;6.87;;;4.90;1.00;;;;;;5116536;28;20170;-77
2022/04/17 00:14:10;;;;;;;9.97;7.03;;;4.90;1.00;;;;;;5097896;28;20184;-77
2022/04/17 00:16:36;;;;;;;10.13;6.53;;;4.90;99.90;;;;;;5116226;28;20201;-77
2022/04/17 00:19:02;;;;;;;11.97;7.03;;;4.80;99.90;;;;;;5116021;28;20632;-77
2022/04/17 00:21:28;;;;;;;11.47;6.93;;;4.70;99.90;;;;;;5097539;28;20204;-77
2022/04/17 00:23:53;;;;;;;10.37;7.27;;;4.60;1.00;;;;;;5097419;28;20287;-77
2022/04/17 00:26:19;;;;;;;10.33;7.50;;;4.50;1.00;;;;;;5115616;28;20201;-77
2022/04/17 00:28:44;;;;;;;11.97;8.73;;;4.60;93.10;;;;;;5115724;28;20221;-77
2022/04/17 00:31:10;;;;;;;14.83;8.73;;;4.50;99.90;;;;;;5097270;28;20200;-77
2022/04/17 00:33:36;;;;;;;12.83;8.00;;;4.50;1.00;;;;;;5115513;28;20249;-77
2022/04/17 00:36:02;;;;;;;9.93;7.00;;;4.50;1.00;;;;;;5115492;28;20181;-77
2022/04/17 00:38:27;;;;;;;12.90;8.10;;;4.50;99.90;;;;;;5097041;28;20213;-77
2022/04/17 00:40:56;;;;;;;10.37;7.20;;;4.50;1.00;;;;;;5115430;28;20174;-77
2022/04/17 00:43:26;;;;;;;10.47;7.27;;;4.40;99.90;;;;;;5115477;28;20181;-76
2022/04/17 00:45:53;;;;;;;10.83;6.80;;;4.40;1.00;;;;;;5096795;28;20185;-75
2022/04/17 00:48:19;;;;;;;11.40;7.43;;;4.30;1.00;;;;;;5115288;28;20225;-75
2022/04/17 00:50:46;;;;;;;9.73;7.23;;;4.30;99.90;;;;;;5097428;28;20177;-75
2022/04/17 00:53:12;;;;;;;8.87;7.23;;;4.30;1.00;;;;;;5115342;28;20225;-75
2022/04/17 00:55:38;;;;;;;10.50;7.20;;;4.20;99.90;;;;;;5097087;28;20258;-75
2022/04/17 00:58:04;;;;;;;11.13;6.67;;;4.20;1.00;;;;;;5115015;28;20198;-75
2022/04/17 01:00:29;;;;;;;9.73;6.83;;;4.10;64.20;;;;;;5096895;28;20185;-75
2022/04/17 01:02:55;;;;;;;10.27;6.90;;;4.10;99.90;;;;;;5096519;28;20192;-75
2022/04/17 01:05:21;;;;;;;8.23;6.17;;;4.10;1.00;;;;;;5114856;28;20185;-75
2022/04/17 01:07:47;;;;;;;11.50;6.93;;;4.00;1.00;;;;;;5096308;28;20213;-75
2022/04/17 01:10:13;;;;;;;9.43;6.70;;;4.00;99.90;;;;;;5114811;28;20188;-75
2022/04/17 01:12:38;;;;;;;9.80;7.20;;;3.90;1.00;;;;;;5096549;28;20653;-75
2022/04/17 01:15:04;;;;;;;11.10;7.40;;;3.90;1.00;;;;;;5114922;28;20264;-75
2022/04/17 01:17:30;;;;;;;10.80;6.83;;;3.80;99.90;;;;;;5114932;28;20176;-75
2022/04/17 01:19:55;;;;;;;11.50;7.20;;;3.80;1.00;;;;;;5115155;28;20177;-75
2022/04/17 01:22:21;;;;;;;9.53;6.47;;;3.80;99.90;;;;;;5114527;28;20656;-76
2022/04/17 01:26:56;;;;;;;10.03;7.10;;;3.70;1.00;;;;;;5114590;28;20201;-76
2022/04/17 01:27:32;;;;;;;9.13;6.90;;;3.80;99.90;;;;;;5114135;28;20351;-76
2022/04/17 01:29:58;;;;;;;9.57;6.80;;;3.70;99.90;;;;;;5096269;28;20208;-76
2022/04/17 01:32:23;;;;;;;12.00;6.83;;;3.70;99.90;;;;;;5114479;28;20181;-76
2022/04/17 01:34:49;;;;;;;9.30;6.43;;;3.70;1.00;;;;;;5095868;28;20177;-76
2022/04/17 01:37:15;;;;;;;8.60;6.20;;;3.70;99.90;;;;;;5095912;28;20184;-76
2022/04/17 01:39:41;;;;;;;8.67;6.97;;;3.60;1.00;;;;;;5114298;28;20181;-76
2022/04/17 01:42:07;;;;;;;12.50;6.70;;;3.60;1.00;;;;;;5114188;28;20515;-76
2022/04/17 01:44:33;;;;;;;9.00;6.37;;;3.60;1.00;;;;;;5114152;28;20596;-76
2022/04/17 01:47:01;;;;;;;9.67;6.60;;;3.50;1.00;;;;;;5114074;28;20684;-76
2022/04/17 01:49:26;;;;;;;10.27;6.30;;;3.50;99.90;;;;;;5113923;28;20533;-76
2022/04/17 01:51:53;;;;;;;10.53;5.90;;;3.50;1.00;;;;;;5114109;28;20253;-77
2022/04/17 01:54:20;;;;;;;8.37;5.73;;;3.40;1.00;;;;;;5113908;28;20170;-76
2022/04/17 01:56:49;;;;;;;11.73;6.00;;;3.40;1.00;;;;;;5095670;28;20627;-76
2022/04/17 01:59:16;;;;;;;8.23;6.00;;;3.40;1.00;;;;;;5094798;28;20250;-76
2022/04/17 02:01:42;;;;;;;10.03;6.50;;;3.30;99.90;;;;;;5113999;28;20679;-76
2022/04/17 02:04:09;;;;;;;7.60;5.70;;;3.30;99.90;;;;;;5113845;28;20177;-77
2022/04/17 02:06:35;;;;;;;8.93;6.03;;;3.30;14.60;;;;;;5095503;28;20213;-76
2022/04/17 02:09:01;;;;;;;8.73;6.43;;;3.20;99.90;;;;;;5113589;28;20189;-76
2022/04/17 02:11:28;;;;;;;11.60;6.70;;;3.20;99.90;;;;;;5113676;28;20173;-76
2022/04/17 02:13:54;;;;;;;10.30;6.70;;;3.20;1.00;;;;;;5113642;28;20195;-76
2022/04/17 02:16:20;;;;;;;9.57;6.50;;;3.10;1.00;;;;;;5114207;28;20212;-77
2022/04/17 02:18:47;;;;;;;9.40;6.23;;;3.10;1.00;;;;;;5096795;28;20206;-77
2022/04/17 02:21:13;;;;;;;8.07;5.83;;;3.10;1.00;;;;;;5114366;28;20181;-77
2022/04/17 02:23:41;;;;;;;9.07;5.70;;;3.00;1.00;;;;;;5095859;28;20581;-75
2022/04/17 02:26:06;;;;;;;8.23;5.80;;;3.00;1.00;;;;;;5113885;28;20295;-76
2022/04/17 02:28:35;;;;;;;8.27;5.70;;;2.90;1.00;;;;;;5114063;28;20224;-77
2022/04/17 02:31:02;;;;;;;9.60;6.60;;;2.90;1.00;;;;;;5095373;28;20183;-76
2022/04/17 02:33:27;;;;;;;7.87;5.80;;;2.90;99.90;;;;;;5113334;28;20192;-77
2022/04/17 02:35:54;;;;;;;11.23;6.33;;;2.80;99.90;;;;;;5095059;28;20181;-76
2022/04/17 02:38:19;;;;;;;10.27;6.90;;;2.90;99.90;;;;;;5095126;28;20219;-76
2022/04/17 02:40:46;;;;;;;9.80;6.17;;;2.80;99.90;;;;;;5094927;28;20178;-75
2022/04/17 02:43:11;;;;;;;10.87;5.80;;;2.80;1.00;;;;;;5114029;28;20178;-76
2022/04/17 02:45:37;;;;;;;10.53;6.43;;;2.80;99.90;;;;;;5113404;28;20648;-75
2022/04/17 02:48:03;;;;;;;8.03;6.37;;;2.70;1.00;;;;;;5113057;28;20261;-75
2022/04/17 02:50:29;;;;;;;8.33;6.10;;;2.70;1.00;;;;;;5113202;28;20177;-75
2022/04/17 02:52:55;;;;;;;9.20;6.63;;;2.70;1.00;;;;;;5094904;28;20181;-75
2022/04/17 02:55:21;;;;;;;9.87;6.27;;;2.70;1.00;;;;;;5113335;28;20183;-75
2022/04/17 02:57:47;;;;;;;6.47;5.40;;;2.70;1.00;;;;;;5113049;28;20573;-77
2022/04/17 03:00:14;;;;;;;8.63;5.67;;;2.60;1.00;;;;;;5113251;28;20166;-75
2022/04/17 03:05:37;;;;;;;7.67;5.40;;;2.60;99.90;;;;;;5113401;28;20165;-75
2022/04/17 03:08:14;;;;;;;6.40;4.97;;;2.60;99.90;;;;;;5113135;28;20219;-75
2022/04/17 03:10:42;;;;;;;9.27;5.70;;;2.60;99.90;;;;;;5098316;28;20761;-76
2022/04/17 03:13:08;;;;;;;9.97;4.93;;;2.60;99.90;;;;;;5116923;28;20545;-75
2022/04/17 03:15:37;;;;;;;6.67;4.40;;;2.50;99.90;;;;;;5116917;28;20588;-76
2022/04/17 03:18:13;;;;;;;7.67;5.10;;;2.60;99.90;;;;;;5116768;28;20196;-75
2022/04/17 03:20:39;;;;;;;9.00;5.23;;;2.50;1.00;;;;;;5117423;28;20153;-75
2022/04/17 03:23:04;;;;;;;6.60;5.07;;;2.50;1.00;;;;;;5116777;28;20225;-76
2022/04/17 03:25:30;;;;;;;8.83;5.40;;;2.40;1.00;;;;;;5117200;28;20513;-76
2022/04/17 03:28:00;;;;;;;9.07;5.50;;;2.40;1.00;;;;;;5116987;28;20219;-76
2022/04/17 03:30:26;;;;;;;6.70;4.50;;;2.40;1.00;;;;;;5116721;28;20173;-75
2022/04/17 03:32:51;;;;;;;6.97;4.67;;;2.40;1.00;;;;;;5117035;28;20714;-75
2022/04/17 03:35:18;;;;;;;6.77;4.77;;;2.40;1.00;;;;;;5117031;28;20188;-76
2022/04/17 03:37:44;;;;;;;5.47;4.70;;;2.40;1.00;;;;;;5098678;28;20213;-75
2022/04/17 03:40:14;;;;;;;6.50;4.53;;;2.30;15.60;;;;;;5116527;28;20181;-75
2022/04/17 03:42:41;;;;;;;5.10;4.43;;;2.40;6.40;;;;;;5116503;28;20206;-75
2022/04/17 03:45:11;;;;;;;7.03;4.70;;;2.40;1.00;;;;;;5116673;28;20205;-75
2022/04/17 03:47:37;;;;;;;9.13;5.10;;;2.40;1.00;;;;;;5116378;28;20292;-75
2022/04/17 03:50:06;;;;;;;7.50;4.80;;;2.30;1.00;;;;;;5116645;28;20205;-75
2022/04/17 03:52:42;;;;;;;6.20;4.90;;;2.30;1.00;;;;;;5116281;28;20173;-75
2022/04/17 03:55:09;;;;;;;7.97;4.93;;;2.30;1.00;;;;;;5097916;28;20174;-75
2022/04/17 03:57:35;;;;;;;6.93;4.77;;;2.20;1.00;;;;;;5097820;28;20232;-75
2022/04/17 04:00:01;;;;;;;7.10;5.07;;;2.20;1.00;;;;;;5116184;28;20180;-75
2022/04/17 04:02:30;;;;;;;6.73;4.90;;;2.20;27.00;;;;;;5097822;28;20182;-75
2022/04/17 04:04:56;;;;;;;6.97;4.63;;;2.20;55.50;;;;;;5116093;28;20177;-75
2022/04/17 04:07:22;;;;;;;8.93;4.57;;;2.20;99.10;;;;;;5097623;28;20217;-75
2022/04/17 04:09:47;;;;;;;8.20;5.20;;;2.10;99.90;;;;;;5116204;28;20226;-75
2022/04/17 04:12:13;;;;;;;7.60;5.13;;;2.20;99.90;;;;;;5097623;28;20183;-75
2022/04/17 04:14:38;;;;;;;7.67;5.30;;;2.20;99.90;;;;;;5116131;28;20586;-75
2022/04/17 04:17:04;;;;;;;6.10;4.83;;;2.20;99.90;;;;;;5115749;28;20173;-75
2022/04/17 04:19:30;;;;;;;7.20;5.17;;;2.20;99.90;;;;;;5097369;28;20209;-75
2022/04/17 04:21:55;;;;;;;5.60;4.20;;;2.20;99.90;;;;;;5115071;28;20621;-75
2022/04/17 04:24:21;;;;;;;7.40;4.83;;;2.20;99.90;;;;;;5115591;28;20687;-75
2022/04/17 04:28:33;;;;;;;5.90;4.27;;;2.20;99.90;;;;;;5097298;28;20241;-75
2022/04/17 04:29:35;;;;;;;4.87;3.97;;;2.20;99.90;;;;;;5115280;28;20294;-75
2022/04/17 04:32:00;;;;;;;5.87;4.47;;;2.30;99.90;;;;;;5097275;28;20177;-75
2022/04/17 04:34:26;;;;;;;6.33;4.60;;;2.30;99.90;;;;;;5115479;28;20173;-75
2022/04/17 04:36:51;;;;;;;8.27;4.53;;;2.40;99.90;;;;;;5115432;28;20191;-75
2022/04/17 04:39:17;;;;;;;5.10;4.33;;;2.40;99.90;;;;;;5096853;28;20204;-75
2022/04/17 04:41:42;;;;;;;5.63;3.93;;;2.40;99.90;;;;;;5097041;28;20545;-75
2022/04/17 04:44:08;;;;;;;10.63;4.83;;;2.50;99.90;;;;;;5096821;28;20181;-75
2022/04/17 04:46:33;;;;;;;6.17;4.20;;;2.50;99.90;;;;;;5096889;28;20216;-75
2022/04/17 04:51:43;;;;;;;8.97;4.67;;;2.60;99.90;;;;;;5115404;28;20584;-75
2022/04/17 04:54:08;;;;;;;6.30;4.03;;;2.60;99.90;;;;;;5115014;28;20165;-75
2022/04/17 04:56:34;;;;;;;5.40;4.07;;;2.60;99.90;;;;;;5115030;28;20165;-75
2022/04/17 04:58:59;;;;;;;7.23;4.03;;;2.70;99.90;;;;;;5114952;28;20221;-75
2022/04/17 05:01:25;;;;;;;7.50;4.40;;;2.70;99.90;;;;;;5114838;28;20177;-75
2022/04/17 05:03:51;;;;;;;4.67;3.93;;;2.70;99.90;;;;;;5114936;28;20184;-75
2022/04/17 05:06:17;;;;;;;5.33;4.27;;;2.80;99.90;;;;;;5114817;28;20212;-75
2022/04/17 05:08:43;;;;;;;5.30;3.80;;;2.80;99.90;;;;;;5114996;28;20279;-76
2022/04/17 05:11:08;;;;;;;6.23;4.10;;;2.80;99.90;;;;;;5096526;28;20218;-76
2022/04/17 05:13:34;;;;;;;4.60;3.90;;;2.80;99.90;;;;;;5096424;28;20218;-76
2022/04/17 05:16:00;;;;;;;5.57;4.33;;;2.90;99.90;;;;;;5096672;28;20559;-76
2022/04/17 05:18:25;;;;;;;9.20;3.93;;;2.90;99.90;;;;;;5114598;28;20273;-76
2022/04/17 05:20:51;;;;;;;5.83;4.60;;;2.90;99.90;;;;;;5114712;28;20239;-76
2022/04/17 05:23:26;;;;;;;6.37;4.40;;;2.90;99.90;;;;;;5115795;28;20711;-75
2022/04/17 05:25:53;;;;;;;7.40;4.33;;;3.00;99.90;;;;;;5114706;28;20168;-75
2022/04/17 05:28:19;;;;;;;6.30;4.20;;;3.00;99.90;;;;;;5096169;28;20201;-75
2022/04/17 05:30:45;;;;;;;6.03;4.30;;;3.00;99.90;;;;;;5114217;28;20696;-75
2022/04/17 05:33:11;;;;;;;4.83;4.03;;;3.00;99.90;;;;;;5113419;28;20182;-76
2022/04/17 05:35:37;;;;;;;4.77;3.30;;;3.10;99.90;;;;;;5096013;28;20181;-75
2022/04/17 05:38:04;;;;;;;4.13;3.43;;;3.10;99.90;;;;;;5096037;28;20276;-76
2022/04/17 05:40:41;;;;;;;7.63;3.97;;;3.10;99.90;;;;;;5095993;28;20189;-75
2022/04/17 05:43:07;;;;;;;4.93;3.00;;;3.20;99.90;;;;;;5115363;28;20493;-76
2022/04/17 05:45:33;;;;;;;4.37;3.03;;;3.20;99.90;;;;;;5095949;28;20193;-76
2022/04/17 05:47:59;;;;;;;3.93;2.63;;;3.30;99.90;;;;;;5113847;28;20213;-76
2022/04/17 05:50:26;;;;;;;3.97;3.10;;;3.30;99.90;;;;;;5114091;28;20185;-76
2022/04/17 05:52:51;;;;;;;4.27;3.00;;;3.40;10.50;;;;;;5114229;28;20178;-76
2022/04/17 05:55:17;;;;;;;4.10;2.77;;;3.50;1.00;;;;;;5113942;28;20189;-76
2022/04/17 05:57:42;;;;;;;3.53;2.80;;;3.50;1.00;;;;;;5114066;28;20541;-75
2022/04/17 06:00:09;;;;;;;4.47;3.00;;;3.60;1.00;;;;;;5113688;28;20189;-76
2022/04/17 06:02:35;;;;;;;3.27;2.50;;;3.60;1.00;;;;;;5095359;28;20246;-75
2022/04/17 06:05:03;;;;;;;4.87;2.80;;;3.70;1.00;;;;;;5113993;28;20532;-76
2022/04/17 06:07:29;;;;;;;4.97;2.60;;;3.80;1.00;;;;;;5113179;28;20197;-75
2022/04/17 06:09:55;;;;;;;2.73;2.00;;;3.90;1.00;;;;;;5113360;28;20264;-76
2022/04/17 06:12:21;;;;;;;4.90;2.77;;;4.00;99.90;;;;;;5095203;28;20624;-75
2022/04/17 06:14:46;;;;;;;4.67;2.30;;;4.10;1.00;;;;;;5094937;28;20292;-75
2022/04/17 06:17:12;;;;;;;2.00;1.70;;;4.20;99.90;;;;;;5113099;28;20177;-75
2022/04/17 06:19:37;;;;;;;4.57;2.30;;;4.40;1.00;;;;;;5113063;28;20182;-76
2022/04/17 06:22:04;;;;;;;4.70;2.17;;;4.60;1.00;;;;;;5113138;28;20185;-76
2022/04/17 06:24:29;;;;;;;3.87;2.10;;;4.70;89.60;;;;;;5113175;28;20209;-76
2022/04/17 06:26:55;;;;;;;3.53;1.83;;;4.80;1.00;;;;;;5094806;28;20692;-76
2022/04/17 06:29:21;;;;;;;5.13;2.03;;;5.00;1.00;;;;;;5094954;28;20205;-76
2022/04/17 06:31:46;;;;;;;2.50;1.97;;;5.20;1.00;;;;;;5113323;28;20609;-75
2022/04/17 06:34:12;;;;;;;5.60;2.30;;;5.30;1.00;;;;;;5094748;28;20185;-76
2022/04/17 06:36:39;;;;;;;2.93;2.00;;;5.50;1.00;;;;;;5113744;28;20648;-75
2022/04/17 06:39:05;;;;;;;5.37;2.20;;;5.70;99.90;;;;;;5113408;28;20579;-75
2022/04/17 06:41:30;;;;;;;3.00;1.90;;;5.90;1.00;;;;;;5113249;28;20178;-76
2022/04/17 06:43:56;;;;;;;3.63;1.70;;;6.00;1.00;;;;;;5114026;28;20193;-76
2022/04/17 06:46:21;;;;;;;3.53;1.90;;;6.20;1.00;;;;;;5099435;28;20270;-75
2022/04/17 06:48:47;;;;;;;5.40;1.93;;;6.40;1.00;;;;;;5099159;28;20198;-76
2022/04/17 06:51:13;;;;;;;2.87;1.70;;;6.50;1.00;;;;;;5117542;28;20260;-76
2022/04/17 06:53:39;;;;;;;3.37;1.87;;;6.70;1.00;;;;;;5117620;28;20178;-74
2022/04/17 06:56:06;;;;;;;1.97;1.57;;;6.80;1.00;;;;;;5099316;28;20269;-73
2022/04/17 06:58:31;;;;;;;2.70;1.40;;;7.00;99.90;;;;;;5117610;28;20334;-74
2022/04/17 07:00:57;;;;;;;3.70;1.70;;;7.10;99.90;;;;;;5099193;28;20635;-73
2022/04/17 07:03:22;;;;;;;3.77;1.80;;;7.20;99.90;;;;;;5117373;28;20178;-74
2022/04/17 07:05:51;;;;;;;2.40;1.37;;;7.30;99.90;;;;;;5117449;28;20181;-74
2022/04/17 07:08:16;;;;;;;2.13;1.53;;;7.50;1.00;;;;;;5117127;28;20197;-74
2022/04/17 07:10:42;;;;;;;2.90;1.70;;;7.60;1.00;;;;;;5099492;28;20204;-74
2022/04/17 07:13:11;;;;;;;1.60;1.43;;;7.70;1.00;;;;;;5117250;28;20557;-75
2022/04/17 07:15:37;;;;;;;2.27;1.30;;;7.90;1.00;;;;;;5117009;28;20548;-75
2022/04/17 07:18:02;;;;;;;2.47;1.90;;;8.00;99.90;;;;;;5117115;28;20193;-75
2022/04/17 07:20:28;;;;;;;2.40;1.40;;;8.20;99.90;;;;;;5098574;28;20182;-74
2022/04/17 07:22:53;;;;;;;2.30;1.47;;;8.30;99.90;;;;;;5098599;28;20224;-74
2022/04/17 07:25:20;;;;;;;9.03;1.47;;;8.40;99.90;;;;;;5117120;28;20162;-75
2022/04/17 07:27:48;;;;;;;1.80;1.50;;;8.50;99.90;;;;;;5098283;28;20213;-74
2022/04/17 07:30:26;;;;;;;2.27;1.40;;;8.60;99.90;;;;;;5117016;28;20201;-74
2022/04/17 07:32:54;;;;;;;4.43;1.77;;;8.70;1.00;;;;;;5116727;28;20161;-74
2022/04/17 07:35:21;;;;;;;2.50;1.30;;;8.90;1.00;;;;;;5116976;28;20181;-74
2022/04/17 07:37:51;;;;;;;5.20;1.57;;;9.00;1.00;;;;;;5116618;28;20192;-73
2022/04/17 07:40:21;;;;;;;1.90;1.33;;;9.00;1.00;;;;;;5116282;28;20238;-72
2022/04/17 07:42:47;;;;;;;2.67;1.40;;;9.10;1.00;;;;;;5097991;28;20588;-72
2022/04/17 07:45:14;;;;;;;1.93;1.30;;;9.30;1.00;;;;;;5116758;28;20536;-73
2022/04/17 07:47:40;;;;;;;1.57;1.33;;;9.30;1.00;;;;;;5098062;28;20220;-73
2022/04/17 07:50:07;;;;;;;2.90;1.40;;;9.40;1.00;;;;;;5116387;28;20170;-73
2022/04/17 07:52:36;;;;;;;3.13;1.37;;;9.50;1.00;;;;;;5098106;28;20177;-75
2022/04/17 07:55:03;;;;;;;3.87;1.50;;;9.50;1.00;;;;;;5114922;28;20435;-76
2022/04/17 07:57:52;;;;;;;1.73;1.30;;;9.60;1.00;;;;;;5115717;28;20178;-75
2022/04/17 08:00:19;;;;;;;1.87;1.13;;;9.70;1.00;;;;;;5115818;28;20718;-75
2022/04/17 08:02:50;;;;;;;3.30;1.60;;;9.80;1.00;;;;;;5116647;28;20173;-76
2022/04/17 08:05:16;;;;;;;1.77;1.47;;;9.90;1.00;;;;;;5116362;28;20165;-76
2022/04/17 08:07:41;;;;;;;2.27;1.37;;;9.90;1.00;;;;;;5115845;28;20209;-76
2022/04/17 08:10:07;;;;;;;2.43;1.30;;;10.00;1.00;;;;;;5098712;28;20173;-76
2022/04/17 08:12:34;;;;;;;3.63;1.30;;;10.10;1.00;;;;;;5116841;28;20181;-76
2022/04/17 08:15:00;;;;;;;2.77;1.57;;;10.20;99.90;;;;;;5100748;28;20178;-78
2022/04/17 08:17:26;;;;;;;4.80;1.40;;;10.30;1.00;;;;;;5100544;28;20680;-78
2022/04/17 08:19:51;;;;;;;1.60;1.10;;;10.40;99.90;;;;;;5125191;28;20194;-77
2022/04/17 08:22:17;;;;;;;1.57;1.20;;;10.50;99.90;;;;;;5124378;28;20185;-77
2022/04/17 08:24:43;;;;;;;2.03;1.40;;;10.60;99.90;;;;;;5122420;28;20205;-78
2022/04/17 08:27:08;;;;;;;1.07;0.90;;;10.70;99.90;;;;;;5123568;28;20556;-77
2022/04/17 08:29:34;;;;;;;3.83;1.47;;;10.70;99.90;;;;;;5123841;28;20262;-78
2022/04/17 08:31:59;;;;;;;3.17;1.40;;;10.80;99.90;;;;;;5105016;28;20277;-77
2022/04/17 08:34:25;;;;;;;2.23;1.37;;;10.90;99.90;;;;;;5120215;28;20254;-78
2022/04/17 08:36:50;;;;;;;2.50;1.30;;;10.90;99.90;;;;;;5100022;28;20192;-78
2022/04/17 08:39:17;;;;;;;2.60;1.27;;;11.00;99.90;;;;;;5100051;28;20201;-78
2022/04/17 08:41:44;;;;;;;1.47;1.07;;;11.00;99.90;;;;;;5100520;28;20185;-78
2022/04/17 08:44:10;;;;;;;3.80;1.20;;;11.10;99.90;;;;;;5118577;28;20704;-78
2022/04/17 08:46:36;;;;;;;2.90;1.53;;;11.20;99.90;;;;;;5118196;28;20224;-78
2022/04/17 08:49:02;;;;;;;1.83;1.23;;;11.20;99.90;;;;;;5099420;28;20672;-78
2022/04/17 08:51:28;;;;;;;3.50;1.67;;;11.30;99.90;;;;;;5118453;28;20162;-78
2022/04/17 08:53:58;;;;;;;3.63;1.30;;;11.40;99.90;;;;;;5118730;28;20204;-78
2022/04/17 08:56:24;;;;;;;2.97;1.73;;;11.50;99.90;;;;;;5101090;28;20207;-78
2022/04/17 08:58:50;;;;;;;3.17;1.40;;;11.60;42.40;;;;;;5119116;28;20680;-78
2022/04/17 09:01:18;;;;;;;2.50;1.47;;;11.70;54.20;;;;;;5119959;28;20741;-78
2022/04/17 09:03:47;;;;;;;2.43;1.10;;;11.70;49.20;;;;;;5100418;28;20186;-78
2022/04/17 09:06:17;;;;;;;4.07;1.47;;;11.80;22.60;;;;;;5099158;28;20189;-78
2022/04/17 09:08:59;;;;;;;4.07;1.53;;;11.80;1.00;;;;;;5117722;28;20265;-78
2022/04/17 09:11:27;;;;;;;1.50;1.30;;;11.90;1.00;;;;;;5118300;28;20574;-78
2022/04/17 09:14:01;;;;;;;2.00;1.30;;;12.00;1.00;;;;;;5099942;28;20227;-78
2022/04/17 09:16:38;;;;;;;1.90;1.00;;;12.10;1.00;;;;;;5099046;28;20655;-78
2022/04/17 09:19:15;;;;;;;1.63;1.10;;;12.20;1.00;;;;;;5116879;28;20197;-78
2022/04/17 09:21:41;;;;;;;4.40;1.23;;;12.30;1.00;;;;;;5117260;28;20181;-77
2022/04/17 09:24:24;;;;;;;2.27;1.20;;;12.30;1.00;;;;;;5117625;28;20228;-78
2022/04/17 09:26:57;;;;;;;3.53;1.17;;;12.40;1.00;;;;;;5117862;28;20197;-78
2022/04/17 09:29:28;;;;;;;2.13;1.40;;;12.40;1.00;;;;;;5118081;28;20657;-78
2022/04/17 09:32:08;;;;;;;2.80;1.20;;;12.50;1.00;;;;;;5117758;28;20264;-78
2022/04/17 09:34:52;;;;;;;3.90;1.17;;;12.60;1.00;;;;;;5101895;28;20181;-78
2022/04/17 09:37:27;;;;;;;2.80;1.10;;;12.70;1.00;;;;;;5121683;28;20660;-78
2022/04/17 09:40:04;;;;;;;2.90;1.40;;;12.70;1.00;;;;;;5099105;28;20185;-78
2022/04/17 09:42:30;;;;;;;2.13;1.30;;;12.80;1.00;;;;;;5117914;28;20613;-78
2022/04/17 09:44:57;;;;;;;2.93;1.27;;;12.90;1.00;;;;;;5117947;28;20189;-78
2022/04/17 09:47:26;;;;;;;1.80;1.30;;;13.00;1.00;;;;;;5098949;28;20209;-78
2022/04/17 09:49:59;;;;;;;3.00;1.40;;;13.00;1.00;;;;;;5098897;28;20196;-78
2022/04/17 09:52:32;;;;;;;2.07;1.20;;;13.10;1.00;;;;;;5116768;28;20184;-78
2022/04/17 09:55:03;;;;;;;2.43;1.27;;;13.20;99.90;;;;;;5098328;28;20182;-78
2022/04/17 09:57:29;;;;;;;4.17;1.27;;;13.20;1.00;;;;;;5117010;28;20170;-78
2022/04/17 10:00:06;;;;;;;1.80;1.10;;;13.30;1.00;;;;;;5099246;28;20196;-78
2022/04/17 10:02:32;;;;;;;2.77;1.60;;;13.50;99.90;;;;;;5117095;28;20182;-77
2022/04/17 10:04:58;;;;;;;1.77;1.17;;;13.50;99.90;;;;;;5117335;28;20185;-78
2022/04/17 10:07:27;;;;;;;1.70;1.17;;;13.70;99.90;;;;;;5117586;28;20209;-78
2022/04/17 10:09:53;;;;;;;1.63;1.27;;;13.70;99.90;;;;;;5117413;28;20596;-78
2022/04/17 10:12:19;;;;;;;2.47;1.17;;;13.80;99.90;;;;;;5099765;28;20269;-79
2022/04/17 10:14:49;;;;;;;4.47;1.10;;;13.80;99.90;;;;;;5098288;28;20281;-78
2022/04/17 10:17:20;;;;;;;1.97;1.20;;;13.90;99.90;;;;;;5116288;28;20633;-78
2022/04/17 10:19:47;;;;;;;1.77;1.17;;;13.90;99.90;;;;;;5115660;28;20291;-78
2022/04/17 10:22:18;;;;;;;1.40;1.10;;;14.00;99.90;;;;;;5098150;28;20568;-78
2022/04/17 10:24:51;;;;;;;2.73;1.37;;;14.00;99.90;;;;;;5117200;28;20205;-78
2022/04/17 10:27:21;;;;;;;2.47;1.20;;;14.20;99.90;;;;;;5116244;28;20200;-79
2022/04/17 10:30:03;;;;;;;1.83;1.00;;;14.30;99.90;;;;;;5116877;28;20706;-78
2022/04/17 10:32:53;;;;;;;2.60;1.30;;;14.30;99.90;;;;;;5116994;28;20172;-79
2022/04/17 10:35:35;;;;;;;2.57;1.33;;;14.50;99.90;;;;;;5117576;28;20165;-79
2022/04/17 10:38:38;;;;;;;2.47;1.27;;;14.50;99.90;;;;;;5116085;28;20255;-76
2022/04/17 10:41:07;;;;;;;2.03;1.13;;;14.60;99.90;;;;;;5117408;28;20636;-79
2022/04/17 10:43:53;;;;;;;2.73;1.30;;;14.60;99.90;;;;;;5117705;28;20239;-79
2022/04/17 10:46:20;;;;;;;2.40;1.10;;;14.70;99.90;;;;;;5098913;28;20192;-79
2022/04/17 10:48:51;;;;;;;1.53;0.90;;;14.70;99.90;;;;;;5099016;28;20610;-79
2022/04/17 10:51:19;;;;;;;2.03;1.10;;;14.70;99.90;;;;;;5117210;28;20240;-79
2022/04/17 10:54:14;;;;;;;2.63;1.00;;;14.70;99.90;;;;;;5097683;28;20191;-79
2022/04/17 10:56:55;;;;;;;2.83;1.37;;;14.80;99.90;;;;;;5117298;28;20629;-78
2022/04/17 10:59:25;;;;;;;2.70;1.13;;;14.80;99.90;;;;;;5117888;28;20284;-79
2022/04/17 11:01:59;;;;;;;1.97;1.10;;;14.90;99.90;;;;;;5099329;28;20220;-79
2022/04/17 11:04:27;;;;;;;1.67;1.00;;;15.00;99.90;;;;;;5116954;28;20479;-79
2022/04/17 11:07:05;;;;;;;2.50;1.10;;;15.10;99.90;;;;;;5117054;28;20209;-77
2022/04/17 11:09:39;;;;;;;3.53;1.50;;;15.10;99.90;;;;;;5099469;28;20688;-79
2022/04/17 11:12:10;;;;;;;2.97;1.33;;;15.20;99.90;;;;;;5116625;28;20185;-78
2022/04/17 11:14:35;;;;;;;3.70;1.03;;;15.30;99.90;;;;;;5117392;28;20181;-79
2022/04/17 11:17:08;;;;;;;1.63;1.07;;;15.40;99.90;;;;;;5098679;28;20365;-79
2022/04/17 11:19:35;;;;;;;3.67;1.10;;;15.40;99.90;;;;;;5118178;28;20741;-79
2022/04/17 11:22:04;;;;;;;1.43;1.00;;;15.50;99.90;;;;;;5117097;28;20253;-79
2022/04/17 11:24:55;;;;;;;2.40;1.17;;;15.50;99.90;;;;;;5099078;28;20700;-78
2022/04/17 11:27:49;;;;;;;2.60;0.90;;;15.60;99.90;;;;;;5116466;28;20212;-78
2022/04/17 11:30:17;;;;;;;2.07;1.13;;;15.70;99.90;;;;;;5099334;28;20185;-79
2022/04/17 11:32:43;;;;;;;1.70;0.90;;;15.90;99.90;;;;;;5103287;28;20181;-79
2022/04/17 11:35:11;;;;;;;1.73;1.00;;;16.00;99.90;;;;;;5103643;28;20547;-79
2022/04/17 11:37:37;;;;;;;2.57;1.10;;;16.10;99.90;;;;;;5120975;28;20200;-78
2022/04/17 11:40:14;;;;;;;2.43;1.10;;;16.20;99.90;;;;;;5103115;28;20231;-78
2022/04/17 11:42:42;;;;;;;1.63;0.97;;;16.20;99.90;;;;;;5121369;28;20182;-79
2022/04/17 11:45:09;;;;;;;1.80;1.03;;;16.20;99.90;;;;;;5122170;28;20182;-79
2022/04/17 11:47:42;;;;;;;1.70;0.90;;;16.20;99.90;;;;;;5121622;28;20313;-79
2022/04/17 11:50:09;;;;;;;1.87;1.20;;;16.20;99.90;;;;;;5103473;28;20668;-78
2022/04/17 11:52:35;;;;;;;3.43;1.00;;;16.20;99.90;;;;;;5121763;28;20177;-79
2022/04/17 11:55:01;;;;;;;1.50;0.93;;;16.20;99.90;;;;;;5123026;28;20238;-79
2022/04/17 11:57:27;;;;;;;2.77;1.00;;;16.20;99.90;;;;;;5122170;28;20213;-79
2022/04/17 11:59:54;;;;;;;1.00;0.90;;;16.30;99.90;;;;;;5122978;28;20193;-79
2022/04/17 12:02:21;;;;;;;1.63;1.00;;;16.40;99.90;;;;;;5122483;28;20170;-79
2022/04/17 12:04:51;;;;;;;1.70;1.07;;;16.40;99.90;;;;;;5121892;28;20687;-79
2022/04/17 12:07:22;;;;;;;1.70;1.10;;;16.50;99.90;;;;;;5121839;28;20627;-78
2022/04/17 12:09:47;;;;;;;2.37;1.20;;;16.60;99.90;;;;;;5102311;28;20205;-78
2022/04/17 12:12:17;;;;;;;2.03;0.90;;;16.70;99.90;;;;;;5102596;28;20191;-79
2022/04/17 12:14:45;;;;;;;2.77;0.80;;;16.80;99.90;;;;;;5103694;28;20200;-79
2022/04/17 12:17:11;;;;;;;1.33;0.87;;;16.80;99.90;;;;;;5123891;28;20249;-79
2022/04/17 12:19:36;;;;;;;1.80;0.90;;;16.90;99.90;;;;;;5131902;28;20182;-78
2022/04/17 12:22:12;;;;;;;1.77;1.00;;;16.80;99.90;;;;;;5119861;28;20200;-78
2022/04/17 12:24:43;;;;;;;1.77;0.90;;;16.90;99.90;;;;;;5118186;28;20254;-78
2022/04/17 12:27:10;;;;;;;1.50;1.00;;;16.90;99.90;;;;;;5116563;28;20226;-79
2022/04/17 12:29:40;;;;;;;1.70;0.97;;;17.00;99.90;;;;;;5131874;28;20194;-79
2022/04/17 12:32:16;;;;;;;2.03;0.90;;;17.00;99.90;;;;;;5120461;28;20641;-79
2022/04/17 12:34:46;;;;;;;1.63;1.23;;;17.10;99.90;;;;;;5101012;28;20181;-78
2022/04/17 12:37:22;;;;;;;2.70;0.90;;;17.20;99.90;;;;;;5119504;28;20170;-79
2022/04/17 12:39:48;;;;;;;3.37;1.10;;;17.30;99.90;;;;;;5100406;28;20185;-78
2022/04/17 12:42:18;;;;;;;1.43;0.80;;;17.30;99.90;;;;;;5099753;28;20185;-79
2022/04/17 12:44:47;;;;;;;1.67;0.80;;;17.30;99.90;;;;;;5118809;28;20583;-78
2022/04/17 12:47:16;;;;;;;1.67;0.87;;;17.20;99.90;;;;;;5118296;28;20280;-79
2022/04/17 12:49:42;;;;;;;1.63;1.00;;;17.50;99.90;;;;;;5099953;28;20224;-78
2022/04/17 12:52:08;;;;;;;1.90;0.83;;;17.50;99.90;;;;;;5118727;28;20177;-79
2022/04/17 12:54:37;;;;;;;1.20;0.80;;;17.60;99.90;;;;;;5118431;28;20659;-78
2022/04/17 12:57:12;;;;;;;1.23;0.90;;;17.70;99.90;;;;;;5118488;28;20178;-78
2022/04/17 12:59:42;;;;;;;2.20;0.87;;;17.80;99.90;;;;;;5119371;28;20166;-79
2022/04/17 13:02:16;;;;;;;1.60;1.00;;;17.90;99.90;;;;;;5119061;28;20182;-79
2022/04/17 13:04:44;;;;;;;1.37;0.87;;;17.80;99.90;;;;;;5100357;28;20186;-79
2022/04/17 13:07:18;;;;;;;2.33;1.10;;;17.70;99.90;;;;;;5119807;28;20201;-78